Time;durP1;ratioP1;P1;durP2;ratioP2;P2;SDS_P1;SDS_P2;PMS_P1;PMS_P2;Temp;Humidity;BMP_temperature;BMP_pressure;BME280_temperature;BME280_humidity;BME280_pressure;Samples;Min_cycle;Max_cycle;Signal;HPM_P1;HPM_P2
2022/08/19 00:01:34;;;;;;;0.00;0.00;;;17.70;47.70;;;;;;5112849;28;20032;-74
2022/08/19 00:04:04;;;;;;;0.00;0.00;;;17.60;48.50;;;;;;5108273;28;20510;-72
2022/08/19 00:06:30;;;;;;;0.00;0.00;;;17.40;48.80;;;;;;5111976;28;20020;-74
2022/08/19 00:08:58;;;;;;;0.00;0.00;;;17.40;48.00;;;;;;5113105;28;20105;-74
2022/08/19 00:11:27;;;;;;;0.00;0.00;;;17.40;48.00;;;;;;5112032;28;20023;-74
2022/08/19 00:13:56;;;;;;;0.00;0.00;;;17.40;48.40;;;;;;5108664;28;20550;-71
2022/08/19 00:16:23;;;;;;;0.00;0.00;;;17.30;48.00;;;;;;5112907;28;20028;-73
2022/08/19 00:18:49;;;;;;;0.55;0.55;;;17.50;47.70;;;;;;5116460;28;20024;-73
2022/08/19 00:21:15;;;;;;;0.00;0.00;;;17.50;47.40;;;;;;5115773;28;20024;-74
2022/08/19 00:23:42;;;;;;;0.00;0.00;;;17.70;47.10;;;;;;5116611;28;20468;-74
2022/08/19 00:26:10;;;;;;;0.00;0.00;;;17.70;47.90;;;;;;5115134;28;20031;-74
2022/08/19 00:28:37;;;;;;;0.00;0.00;;;17.70;47.50;;;;;;5113408;28;20031;-73
2022/08/19 00:31:04;;;;;;;0.00;0.00;;;17.80;47.90;;;;;;5113691;28;20031;-74
2022/08/19 00:33:34;;;;;;;6.05;5.60;;;17.70;48.40;;;;;;5115140;28;20032;-73
2022/08/19 00:36:04;;;;;;;0.00;0.00;;;17.70;48.50;;;;;;5115448;28;20160;-72
2022/08/19 00:38:31;;;;;;;0.00;0.00;;;17.70;49.70;;;;;;5114555;28;20122;-73
2022/08/19 00:40:58;;;;;;;0.00;0.00;;;17.70;50.10;;;;;;5115204;28;20024;-73
2022/08/19 00:43:26;;;;;;;0.00;0.00;;;17.70;49.60;;;;;;5115328;28;20491;-73
2022/08/19 00:45:53;;;;;;;0.00;0.00;;;17.70;50.20;;;;;;5111856;28;20365;-73
2022/08/19 00:48:20;;;;;;;0.00;0.00;;;17.90;49.80;;;;;;5112828;28;20463;-73
2022/08/19 00:50:49;;;;;;;0.00;0.00;;;18.10;49.00;;;;;;5094601;28;20039;-73
2022/08/19 00:53:18;;;;;;;0.00;0.00;;;18.30;49.80;;;;;;5113770;28;20031;-73
2022/08/19 00:55:50;;;;;;;0.00;0.00;;;18.40;48.90;;;;;;5114279;28;20018;-73
2022/08/19 00:58:18;;;;;;;0.30;0.30;;;18.50;48.10;;;;;;5111465;28;20059;-73
2022/08/19 01:00:47;;;;;;;1.00;1.00;;;18.70;50.50;;;;;;5113382;28;20056;-73
2022/08/19 01:03:17;;;;;;;0.00;0.00;;;18.50;48.60;;;;;;5112696;28;20459;-73
2022/08/19 01:05:45;;;;;;;0.00;0.00;;;18.60;47.90;;;;;;5094195;28;20028;-72
2022/08/19 01:08:13;;;;;;;0.00;0.00;;;18.80;48.80;;;;;;5110919;28;20462;-74
2022/08/19 01:10:44;;;;;;;0.85;0.30;;;19.20;47.70;;;;;;5112126;28;20024;-73
2022/08/19 01:13:13;;;;;;;0.00;0.00;;;19.60;46.80;;;;;;5109258;28;20042;-74
2022/08/19 01:15:46;;;;;;;0.00;0.00;;;19.90;46.00;;;;;;5112108;28;20027;-74
2022/08/19 01:18:16;;;;;;;0.00;0.00;;;20.00;44.70;;;;;;5112021;28;20016;-74
2022/08/19 01:20:44;;;;;;;0.00;0.00;;;19.80;46.20;;;;;;5113359;28;20069;-74
2022/08/19 01:23:11;;;;;;;0.38;0.38;;;20.00;45.30;;;;;;5113539;28;20132;-73
2022/08/19 01:25:49;;;;;;;0.10;0.10;;;19.90;47.00;;;;;;5113899;28;20019;-72
2022/08/19 01:28:27;;;;;;;0.00;0.00;;;20.00;45.30;;;;;;5111417;28;20078;-73
2022/08/19 01:30:54;;;;;;;2.00;0.10;;;20.20;44.60;;;;;;5110170;28;20027;-72
2022/08/19 01:33:21;;;;;;;0.35;0.32;;;20.40;44.70;;;;;;5113544;28;20483;-72
2022/08/19 01:35:51;;;;;;;0.20;0.17;;;20.50;43.80;;;;;;5113930;28;20028;-72
2022/08/19 01:38:26;;;;;;;0.28;0.28;;;20.30;43.30;;;;;;5110869;28;20031;-72
2022/08/19 01:40:52;;;;;;;0.22;0.22;;;20.30;43.30;;;;;;5113478;28;20035;-72
2022/08/19 01:43:20;;;;;;;0.00;0.00;;;20.40;43.30;;;;;;5111286;28;20094;-73
2022/08/19 01:45:46;;;;;;;6.35;2.25;;;20.50;43.70;;;;;;5110880;28;20028;-72
2022/08/19 01:48:13;;;;;;;0.00;0.00;;;20.80;42.60;;;;;;5113434;28;20047;-72
2022/08/19 01:50:40;;;;;;;1.55;1.48;;;20.90;43.50;;;;;;5109791;28;20110;-73
2022/08/19 01:53:09;;;;;;;0.65;0.65;;;21.20;42.40;;;;;;5109354;28;20022;-72
2022/08/19 01:55:39;;;;;;;1.50;1.40;;;21.50;42.00;;;;;;5111088;28;20042;-72
2022/08/19 01:58:06;;;;;;;0.38;0.38;;;21.50;41.40;;;;;;5113403;28;20047;-74
2022/08/19 02:00:33;;;;;;;3.72;2.03;;;21.70;41.40;;;;;;5112329;28;20359;-73
2022/08/19 02:03:00;;;;;;;0.10;0.05;;;21.60;41.60;;;;;;5114421;28;20562;-73
2022/08/19 02:05:29;;;;;;;0.73;0.52;;;21.70;42.40;;;;;;5116255;27;20519;-73
2022/08/19 02:07:56;;;;;;;0.80;0.57;;;22.00;42.10;;;;;;5114082;28;20051;-73
2022/08/19 02:10:23;;;;;;;0.10;0.10;;;22.40;41.30;;;;;;5114687;28;20020;-73
2022/08/19 02:12:49;;;;;;;2.45;2.35;;;22.80;41.60;;;;;;5113601;28;20057;-73
2022/08/19 02:15:18;;;;;;;0.45;0.45;;;22.80;40.60;;;;;;5113109;28;20028;-73
2022/08/19 02:17:45;;;;;;;1.27;0.35;;;22.50;40.40;;;;;;5112631;28;20495;-74
2022/08/19 02:20:12;;;;;;;7.07;6.25;;;22.30;40.30;;;;;;5113203;28;20380;-73
2022/08/19 02:22:41;;;;;;;7.18;1.67;;;22.40;41.60;;;;;;5114033;28;20020;-73
2022/08/19 02:25:09;;;;;;;0.20;0.20;;;22.50;42.90;;;;;;5116708;27;20019;-73
2022/08/19 02:27:35;;;;;;;0.32;0.32;;;22.90;42.50;;;;;;5113029;28;20080;-73
2022/08/19 02:30:06;;;;;;;0.45;0.30;;;22.80;41.80;;;;;;5114218;28;20035;-73
2022/08/19 02:32:33;;;;;;;1.00;0.90;;;23.40;38.30;;;;;;5123439;27;20053;-73
2022/08/19 02:34:59;;;;;;;0.30;0.20;;;23.80;39.00;;;;;;5103728;27;20084;-73
2022/08/19 02:40:11;;;;;;;0.00;0.00;;;23.10;38.70;;;;;;5105597;28;20376;-74
2022/08/19 02:42:37;;;;;;;0.22;0.22;;;24.00;37.80;;;;;;5109613;27;20031;-77
2022/08/19 02:45:05;;;;;;;0.10;0.10;;;24.10;38.70;;;;;;5109496;27;20031;-73
2022/08/19 02:47:31;;;;;;;0.35;0.35;;;24.40;38.00;;;;;;5109274;27;20039;-75
2022/08/19 02:49:58;;;;;;;0.00;0.00;;;24.90;36.60;;;;;;5110231;28;20043;-75
2022/08/19 02:52:25;;;;;;;5.93;4.30;;;24.90;36.10;;;;;;5105138;27;20456;-74
2022/08/19 02:54:51;;;;;;;5.88;1.25;;;26.00;35.40;;;;;;5111367;28;20352;-75
2022/08/19 02:57:17;;;;;;;0.52;0.22;;;25.50;35.50;;;;;;5110494;28;20193;-75
2022/08/19 02:59:44;;;;;;;0.28;0.28;;;25.30;35.30;;;;;;5109417;28;20039;-74
2022/08/19 03:02:15;;;;;;;0.05;0.05;;;24.50;36.30;;;;;;5111556;28;20047;-74
2022/08/19 03:04:41;;;;;;;0.52;0.22;;;24.50;38.20;;;;;;5104975;28;20456;-75
2022/08/19 03:07:09;;;;;;;3.97;0.75;;;24.40;37.50;;;;;;5102239;28;20031;-74
2022/08/19 03:09:37;;;;;;;0.65;0.65;;;24.70;37.00;;;;;;5107234;28;20020;-74
2022/08/19 03:12:05;;;;;;;0.35;0.35;;;25.20;36.50;;;;;;5107266;28;20446;-74
2022/08/19 03:14:33;;;;;;;0.00;0.00;;;25.70;35.40;;;;;;5109942;28;20461;-73
2022/08/19 03:16:59;;;;;;;0.00;0.00;;;25.50;35.30;;;;;;5111784;28;20471;-74
2022/08/19 03:19:25;;;;;;;2.55;2.08;;;25.00;36.60;;;;;;5107841;28;20062;-74
2022/08/19 03:21:52;;;;;;;0.00;0.00;;;23.90;37.70;;;;;;5104665;28;20142;-74
2022/08/19 03:24:19;;;;;;;0.00;0.00;;;22.60;40.50;;;;;;5101563;28;20448;-74
2022/08/19 03:26:49;;;;;;;0.52;0.43;;;22.30;41.60;;;;;;5106948;28;20024;-75
2022/08/19 03:29:17;;;;;;;0.00;0.00;;;22.30;40.90;;;;;;5103361;28;20038;-72
2022/08/19 03:31:44;;;;;;;0.35;0.32;;;22.10;41.60;;;;;;5106414;28;20023;-73
2022/08/19 03:34:12;;;;;;;0.38;0.38;;;22.10;41.70;;;;;;5111263;28;20035;-74
2022/08/19 03:36:39;;;;;;;0.00;0.00;;;21.80;42.20;;;;;;5112374;28;20390;-74
2022/08/19 03:39:08;;;;;;;0.00;0.00;;;21.90;41.90;;;;;;5109632;28;20020;-72
2022/08/19 03:41:39;;;;;;;0.00;0.00;;;21.70;42.00;;;;;;5109119;28;20107;-73
2022/08/19 03:44:05;;;;;;;0.15;0.15;;;21.80;42.60;;;;;;5107927;28;20074;-74
2022/08/19 03:46:33;;;;;;;0.28;0.28;;;21.90;42.50;;;;;;5100452;28;20155;-73
2022/08/19 03:49:03;;;;;;;0.75;0.75;;;22.10;42.70;;;;;;5102230;28;20043;-71
2022/08/19 03:51:37;;;;;;;0.00;0.00;;;22.40;41.20;;;;;;5109707;27;20027;-72
2022/08/19 03:54:08;;;;;;;1.17;0.85;;;22.60;40.90;;;;;;5108267;27;20098;-73
2022/08/19 03:56:36;;;;;;;0.10;0.10;;;22.50;40.50;;;;;;5115471;27;20403;-72
2022/08/19 03:59:03;;;;;;;0.00;0.00;;;21.90;42.00;;;;;;5106731;27;20031;-72
2022/08/19 04:01:30;;;;;;;0.00;0.00;;;22.00;41.40;;;;;;5117784;27;20022;-73
2022/08/19 04:03:57;;;;;;;0.00;0.00;;;22.10;41.50;;;;;;5109826;27;20035;-72
2022/08/19 04:06:26;;;;;;;5.65;0.82;;;22.50;40.20;;;;;;5109273;27;20019;-73
2022/08/19 04:08:54;;;;;;;0.00;0.00;;;22.80;39.80;;;;;;5112388;27;20423;-73
2022/08/19 04:11:25;;;;;;;1.67;0.43;;;22.90;40.00;;;;;;5112000;27;20107;-73
2022/08/19 04:13:52;;;;;;;0.65;0.65;;;22.80;39.90;;;;;;5112648;27;20367;-73
2022/08/19 04:16:19;;;;;;;0.00;0.00;;;22.70;40.60;;;;;;5107560;27;20074;-72
2022/08/19 04:18:49;;;;;;;0.10;0.10;;;23.10;39.50;;;;;;5111389;27;20035;-71
2022/08/19 04:21:22;;;;;;;0.00;0.00;;;23.10;38.80;;;;;;5113698;27;20023;-72
2022/08/19 04:23:48;;;;;;;0.00;0.00;;;22.90;39.90;;;;;;5113846;28;20637;-73
2022/08/19 04:26:20;;;;;;;0.10;0.10;;;23.00;37.80;;;;;;5115784;27;20023;-73
2022/08/19 04:28:47;;;;;;;0.00;0.00;;;23.30;37.50;;;;;;5108303;27;20250;-72
2022/08/19 04:31:16;;;;;;;0.00;0.00;;;23.50;36.10;;;;;;5110888;27;20378;-71
2022/08/19 04:33:42;;;;;;;0.57;0.57;;;23.70;36.30;;;;;;5116420;27;20480;-72
2022/08/19 04:36:16;;;;;;;0.00;0.00;;;23.20;36.50;;;;;;5111725;27;20051;-73
2022/08/19 04:38:42;;;;;;;0.00;0.00;;;23.40;36.30;;;;;;5109836;27;20020;-71
2022/08/19 04:43:53;;;;;;;0.05;0.05;;;23.90;35.80;;;;;;5114270;27;20027;-73
2022/08/19 04:46:21;;;;;;;0.00;0.00;;;24.00;35.00;;;;;;5114048;27;20011;-72
2022/08/19 04:48:47;;;;;;;0.00;0.00;;;24.20;35.20;;;;;;5112195;27;20475;-73
2022/08/19 04:51:13;;;;;;;0.00;0.00;;;24.20;35.00;;;;;;5112743;27;20034;-72
2022/08/19 04:53:41;;;;;;;0.00;0.00;;;24.40;35.30;;;;;;5109907;27;20027;-72
2022/08/19 04:56:11;;;;;;;0.00;0.00;;;24.10;36.20;;;;;;5117593;27;20043;-72
2022/08/19 04:58:39;;;;;;;0.00;0.00;;;24.30;35.10;;;;;;5095457;27;20466;-73
2022/08/19 05:01:05;;;;;;;12.82;4.72;;;24.20;35.10;;;;;;5111045;27;20455;-73
2022/08/19 05:03:33;;;;;;;0.00;0.00;;;24.20;36.30;;;;;;5107714;27;20023;-73
2022/08/19 05:06:07;;;;;;;0.52;0.52;;;23.90;35.50;;;;;;5103512;27;20019;-73
2022/08/19 05:08:34;;;;;;;0.00;0.00;;;24.00;35.30;;;;;;5106155;27;20062;-73
2022/08/19 05:11:01;;;;;;;0.00;0.00;;;24.00;34.80;;;;;;5110206;28;20395;-73
2022/08/19 05:13:27;;;;;;;0.00;0.00;;;24.30;35.70;;;;;;5109670;28;20026;-73
2022/08/19 05:15:58;;;;;;;0.00;0.00;;;24.40;36.10;;;;;;5112518;28;20027;-73
2022/08/19 05:24:01;;;;;;;0.20;0.10;;;24.70;36.10;;;;;;5119645;27;20038;-73
2022/08/19 05:26:28;;;;;;;0.00;0.00;;;24.40;35.20;;;;;;5118364;27;20024;-74
2022/08/19 05:28:55;;;;;;;0.03;0.03;;;24.30;35.60;;;;;;5124727;27;20024;-73
2022/08/19 05:31:21;;;;;;;0.00;0.00;;;24.20;35.60;;;;;;5123503;27;20471;-73
2022/08/19 05:33:49;;;;;;;0.00;0.00;;;24.40;35.70;;;;;;5097352;28;20036;-72
2022/08/19 05:36:15;;;;;;;0.10;0.10;;;24.40;35.30;;;;;;5091542;28;20035;-73
2022/08/19 05:38:42;;;;;;;0.00;0.00;;;24.50;35.60;;;;;;5112561;27;20036;-72
2022/08/19 05:41:10;;;;;;;0.00;0.00;;;24.60;34.90;;;;;;5113452;27;20482;-72
2022/08/19 05:43:37;;;;;;;0.00;0.00;;;24.30;34.10;;;;;;5115756;27;20019;-72
2022/08/19 05:46:05;;;;;;;0.00;0.00;;;24.40;36.50;;;;;;5116392;27;20024;-72
2022/08/19 05:48:33;;;;;;;0.00;0.00;;;24.60;36.70;;;;;;5114235;27;20027;-72
2022/08/19 05:51:08;;;;;;;8.35;1.10;;;24.60;36.90;;;;;;5091902;28;21134;-72
2022/08/19 05:53:35;;;;;;;0.22;0.08;;;24.50;37.60;;;;;;5111394;27;20035;-72
2022/08/19 05:56:06;;;;;;;1.13;0.32;;;24.50;38.40;;;;;;5109940;28;20103;-72
2022/08/19 05:58:33;;;;;;;0.00;0.00;;;24.30;37.90;;;;;;5110652;27;20375;-72
2022/08/19 06:01:04;;;;;;;0.00;0.00;;;24.50;37.60;;;;;;5091534;28;20166;-72
2022/08/19 06:03:34;;;;;;;0.00;0.00;;;24.70;36.60;;;;;;5109316;27;20222;-72
2022/08/19 06:06:00;;;;;;;12.40;0.75;;;24.80;36.10;;;;;;5106802;27;20048;-73
2022/08/19 06:08:27;;;;;;;0.00;0.00;;;24.50;37.10;;;;;;5113831;27;20024;-72
2022/08/19 06:10:56;;;;;;;0.03;0.03;;;24.50;37.40;;;;;;5111618;27;21846;-72
2022/08/19 06:13:23;;;;;;;2.30;1.55;;;24.60;38.20;;;;;;5102556;27;20028;-71
2022/08/19 06:15:50;;;;;;;0.00;0.00;;;24.40;38.00;;;;;;5111540;27;20106;-74
2022/08/19 06:18:16;;;;;;;0.20;0.20;;;24.60;37.80;;;;;;5107635;27;20044;-73
2022/08/19 06:20:45;;;;;;;0.00;0.00;;;24.70;36.50;;;;;;5103518;27;20036;-72
2022/08/19 06:23:11;;;;;;;1.00;1.00;;;24.70;37.70;;;;;;5106012;28;20609;-73
2022/08/19 06:25:41;;;;;;;0.88;0.88;;;24.80;37.60;;;;;;5107240;27;20031;-73
2022/08/19 06:28:07;;;;;;;0.00;0.00;;;24.90;37.20;;;;;;5107579;27;20045;-73
2022/08/19 06:30:33;;;;;;;0.10;0.10;;;25.00;37.00;;;;;;5104080;28;20024;-73
2022/08/19 06:32:59;;;;;;;0.52;0.20;;;24.80;36.40;;;;;;5104844;27;20062;-72
2022/08/19 06:35:26;;;;;;;0.00;0.00;;;24.60;37.00;;;;;;5105461;27;20034;-72
2022/08/19 06:37:53;;;;;;;0.00;0.00;;;24.60;36.80;;;;;;5104143;27;20360;-73
2022/08/19 06:40:19;;;;;;;0.00;0.00;;;24.70;36.60;;;;;;5106128;27;20484;-74
2022/08/19 06:42:45;;;;;;;0.00;0.00;;;24.90;36.10;;;;;;5109965;27;20420;-73
2022/08/19 06:45:11;;;;;;;0.00;0.00;;;24.80;35.40;;;;;;5112028;27;20027;-72
2022/08/19 06:47:37;;;;;;;0.00;0.00;;;24.80;34.80;;;;;;5107971;27;20475;-72
2022/08/19 06:50:04;;;;;;;0.25;0.20;;;24.80;35.20;;;;;;5111084;27;20055;-73
2022/08/19 06:52:33;;;;;;;4.88;0.85;;;24.70;36.30;;;;;;5106087;27;20072;-73
2022/08/19 06:55:00;;;;;;;0.38;0.38;;;24.70;34.80;;;;;;5090243;28;20072;-73
2022/08/19 06:57:31;;;;;;;0.00;0.00;;;24.60;35.30;;;;;;5106069;27;20040;-71
2022/08/19 06:59:57;;;;;;;0.00;0.00;;;24.80;34.50;;;;;;5101571;28;20090;-72
2022/08/19 07:02:26;;;;;;;0.00;0.00;;;25.10;33.90;;;;;;5108115;28;20055;-73
2022/08/19 07:04:52;;;;;;;0.10;0.10;;;25.20;34.10;;;;;;5106377;28;20023;-72
2022/08/19 07:07:20;;;;;;;0.00;0.00;;;25.00;31.70;;;;;;5109033;27;20028;-73
2022/08/19 07:09:46;;;;;;;0.20;0.20;;;25.10;31.90;;;;;;5109811;27;20023;-73
2022/08/19 07:12:16;;;;;;;0.00;0.00;;;25.20;30.00;;;;;;5114287;27;20031;-73
2022/08/19 07:14:45;;;;;;;0.17;0.17;;;25.20;31.30;;;;;;5113680;28;20397;-73
2022/08/19 07:17:12;;;;;;;0.15;0.13;;;25.10;31.40;;;;;;5114622;28;20469;-72
2022/08/19 07:19:40;;;;;;;0.00;0.00;;;25.30;30.00;;;;;;5107279;28;20036;-72
2022/08/19 07:22:08;;;;;;;0.00;0.00;;;25.50;30.00;;;;;;5105347;28;20030;-72
2022/08/19 07:24:34;;;;;;;0.00;0.00;;;25.60;29.70;;;;;;5108385;28;20102;-73
2022/08/19 07:27:03;;;;;;;0.00;0.00;;;25.70;29.40;;;;;;5111971;27;20023;-72
2022/08/19 07:29:33;;;;;;;0.00;0.00;;;25.90;29.10;;;;;;5108449;27;20038;-71
2022/08/19 07:32:00;;;;;;;0.00;0.00;;;25.60;28.70;;;;;;5109016;27;20066;-73
2022/08/19 07:34:29;;;;;;;2.20;2.10;;;25.90;28.90;;;;;;5108215;27;20028;-72
2022/08/19 07:36:57;;;;;;;0.00;0.00;;;26.10;28.40;;;;;;5113081;27;20055;-72
2022/08/19 07:39:27;;;;;;;0.00;0.00;;;25.60;28.10;;;;;;5116099;27;20030;-73
2022/08/19 07:41:55;;;;;;;0.00;0.00;;;25.80;28.00;;;;;;5111155;27;20024;-72
2022/08/19 07:44:22;;;;;;;0.00;0.00;;;26.10;27.50;;;;;;5112467;27;20051;-72
2022/08/19 07:46:52;;;;;;;0.00;0.00;;;26.20;28.30;;;;;;5112537;27;20035;-74
2022/08/19 07:49:19;;;;;;;0.00;0.00;;;26.40;28.40;;;;;;5112013;27;20134;-72
2022/08/19 07:51:47;;;;;;;0.00;0.00;;;26.40;28.60;;;;;;5106423;27;20441;-73
2022/08/19 07:54:14;;;;;;;0.00;0.00;;;26.50;27.70;;;;;;5114164;27;20031;-73
2022/08/19 07:56:40;;;;;;;0.00;0.00;;;26.40;27.60;;;;;;5113373;28;20051;-73
2022/08/19 07:59:11;;;;;;;0.40;0.32;;;26.00;28.50;;;;;;5112309;28;20123;-73
2022/08/19 08:01:40;;;;;;;0.00;0.00;;;26.10;27.90;;;;;;5110553;27;20028;-72
2022/08/19 08:09:40;;;;;;;0.20;0.20;;;26.00;28.90;;;;;;5115549;27;20042;-74
2022/08/19 08:12:14;;;;;;;1.17;1.17;;;26.10;28.70;;;;;;5115507;27;20031;-71
2022/08/19 08:14:48;;;;;;;0.00;0.00;;;26.30;29.40;;;;;;5115016;27;20038;-73
2022/08/19 08:17:21;;;;;;;0.00;0.00;;;26.40;29.00;;;;;;5112896;27;20023;-71
2022/08/19 08:19:49;;;;;;;0.00;0.00;;;26.50;28.60;;;;;;5111535;27;20020;-73
2022/08/19 08:25:11;;;;;;;0.00;0.00;;;27.10;28.10;;;;;;5112447;27;20066;-74
2022/08/19 08:27:39;;;;;;;0.00;0.00;;;27.40;27.40;;;;;;5111575;27;20015;-73
2022/08/19 08:30:09;;;;;;;0.00;0.00;;;27.10;27.40;;;;;;5113942;27;20028;-73
2022/08/19 08:32:37;;;;;;;0.57;0.57;;;27.30;26.70;;;;;;5112751;28;20348;-72
2022/08/19 08:35:10;;;;;;;0.20;0.20;;;27.00;27.20;;;;;;5109188;27;20031;-71
2022/08/19 08:37:37;;;;;;;0.00;0.00;;;26.70;27.60;;;;;;5109809;27;20015;-73
2022/08/19 08:40:18;;;;;;;0.25;0.25;;;26.70;28.20;;;;;;5111707;27;20019;-73
2022/08/19 08:43:08;;;;;;;0.00;0.00;;;26.80;28.10;;;;;;5115001;27;20110;-72
2022/08/19 08:45:38;;;;;;;0.00;0.00;;;26.90;27.20;;;;;;5115412;27;20022;-73
2022/08/19 08:48:25;;;;;;;0.65;0.65;;;26.90;26.80;;;;;;5113485;27;20463;-73
2022/08/19 08:50:55;;;;;;;0.90;0.25;;;27.10;26.80;;;;;;5092746;28;20112;-72
2022/08/19 08:53:22;;;;;;;0.00;0.00;;;27.20;26.80;;;;;;5107417;27;20019;-73
2022/08/19 08:55:50;;;;;;;0.00;0.00;;;27.00;27.30;;;;;;5108862;27;20956;-73
2022/08/19 08:58:28;;;;;;;0.00;0.00;;;27.20;27.60;;;;;;5109742;27;20114;-73
2022/08/19 09:00:54;;;;;;;0.10;0.10;;;27.40;27.20;;;;;;5112090;27;20020;-72
2022/08/19 09:03:24;;;;;;;0.00;0.00;;;27.20;28.80;;;;;;5105923;28;20464;-72
2022/08/19 09:06:01;;;;;;;0.00;0.00;;;27.10;27.80;;;;;;5111921;28;20055;-73
2022/08/19 09:09:04;;;;;;;0.00;0.00;;;27.10;27.20;;;;;;5110376;28;20339;-72
2022/08/19 09:11:33;;;;;;;0.10;0.10;;;27.20;27.00;;;;;;5114455;27;20028;-72
2022/08/19 09:14:13;;;;;;;0.98;0.32;;;27.00;28.00;;;;;;5110944;27;20020;-72
2022/08/19 09:16:40;;;;;;;0.20;0.10;;;27.10;27.90;;;;;;5108416;27;20024;-72
2022/08/19 09:19:08;;;;;;;0.00;0.00;;;27.30;27.10;;;;;;5109222;28;20024;-71
2022/08/19 09:21:35;;;;;;;0.00;0.00;;;27.30;27.60;;;;;;5110966;27;20073;-72
2022/08/19 09:24:02;;;;;;;0.10;0.10;;;27.40;27.60;;;;;;5090259;28;20066;-73
2022/08/19 09:26:29;;;;;;;5.30;0.40;;;27.30;27.40;;;;;;5110797;27;20031;-71
2022/08/19 09:28:56;;;;;;;0.00;0.00;;;27.40;28.40;;;;;;5110744;27;20035;-72
2022/08/19 09:31:25;;;;;;;0.00;0.00;;;27.40;28.50;;;;;;5109885;27;20023;-73
2022/08/19 09:33:52;;;;;;;0.38;0.38;;;27.50;28.10;;;;;;5111381;27;20031;-70
2022/08/19 09:36:22;;;;;;;0.00;0.00;;;27.30;28.30;;;;;;5110469;28;20103;-72
2022/08/19 09:38:48;;;;;;;0.10;0.00;;;27.10;28.20;;;;;;5105441;27;20023;-72
2022/08/19 09:41:18;;;;;;;0.00;0.00;;;27.00;28.40;;;;;;5117538;27;20351;-72
2022/08/19 09:43:46;;;;;;;0.00;0.00;;;27.20;28.00;;;;;;5107802;27;20032;-72
2022/08/19 09:46:13;;;;;;;0.00;0.00;;;27.10;27.40;;;;;;5105371;27;20452;-72
2022/08/19 09:48:41;;;;;;;0.00;0.00;;;27.10;27.90;;;;;;5105570;27;20047;-72
2022/08/19 09:51:15;;;;;;;0.00;0.00;;;27.00;27.90;;;;;;5108665;28;20383;-71
2022/08/19 09:53:43;;;;;;;0.00;0.00;;;27.10;27.80;;;;;;5109586;27;20072;-71
2022/08/19 09:56:09;;;;;;;0.05;0.05;;;27.10;27.60;;;;;;5108885;27;20047;-73
2022/08/19 09:58:37;;;;;;;0.00;0.00;;;27.20;27.50;;;;;;5107890;27;20020;-73
2022/08/19 10:01:04;;;;;;;0.03;0.03;;;27.10;27.50;;;;;;5110609;27;20024;-72
2022/08/19 10:03:32;;;;;;;0.10;0.08;;;27.00;27.70;;;;;;5109919;27;20031;-73
2022/08/19 10:06:01;;;;;;;0.05;0.03;;;26.70;28.60;;;;;;5119084;27;20041;-72
2022/08/19 10:08:33;;;;;;;0.20;0.20;;;26.10;29.40;;;;;;5114403;27;20019;-73
2022/08/19 10:11:03;;;;;;;0.00;0.00;;;26.10;29.90;;;;;;5113790;27;20024;-73
2022/08/19 10:13:35;;;;;;;0.20;0.17;;;26.40;30.00;;;;;;5114888;27;20024;-72
2022/08/19 10:16:10;;;;;;;0.00;0.00;;;26.50;29.90;;;;;;5108658;27;20015;-72
2022/08/19 10:18:37;;;;;;;0.05;0.05;;;26.50;29.50;;;;;;5109405;27;20059;-72
2022/08/19 10:21:10;;;;;;;0.00;0.00;;;26.60;29.10;;;;;;5113428;27;20030;-72
2022/08/19 10:23:38;;;;;;;0.00;0.00;;;26.80;29.30;;;;;;5084858;28;20031;-72
2022/08/19 10:26:06;;;;;;;0.00;0.00;;;26.80;28.90;;;;;;5108387;27;20378;-72
2022/08/19 10:28:38;;;;;;;2.75;1.10;;;26.60;28.60;;;;;;5114275;27;20564;-72
2022/08/19 10:31:13;;;;;;;0.00;0.00;;;26.50;28.50;;;;;;5111399;27;20031;-71
2022/08/19 10:33:40;;;;;;;0.38;0.22;;;26.40;28.90;;;;;;5109228;27;20116;-73
2022/08/19 10:36:17;;;;;;;0.00;0.00;;;26.30;28.70;;;;;;5112754;27;20019;-74
2022/08/19 10:38:46;;;;;;;0.82;0.77;;;26.10;28.70;;;;;;5114026;27;20156;-72
2022/08/19 10:41:22;;;;;;;1.08;1.08;;;26.10;28.80;;;;;;5114156;27;20023;-71
2022/08/19 10:43:54;;;;;;;0.00;0.00;;;26.20;29.10;;;;;;5111618;27;20103;-73
2022/08/19 10:46:22;;;;;;;0.00;0.00;;;26.20;29.30;;;;;;5109855;27;20340;-73
2022/08/19 10:48:49;;;;;;;0.00;0.00;;;26.10;29.20;;;;;;5107073;28;20035;-73
2022/08/19 10:54:04;;;;;;;0.30;0.30;;;26.20;29.90;;;;;;5105651;27;20491;-73
2022/08/19 10:59:16;;;;;;;0.95;0.10;;;26.10;30.70;;;;;;5106543;28;20104;-73
2022/08/19 11:01:45;;;;;;;0.00;0.00;;;26.10;30.90;;;;;;5107577;28;20367;-73
2022/08/19 11:04:13;;;;;;;0.20;0.17;;;26.20;31.30;;;;;;5108438;27;20027;-73
2022/08/19 11:06:47;;;;;;;0.00;0.00;;;26.30;31.10;;;;;;5111845;27;20102;-71
2022/08/19 11:09:19;;;;;;;0.00;0.00;;;26.40;31.20;;;;;;5108651;27;20035;-70
2022/08/19 11:11:47;;;;;;;0.00;0.00;;;26.50;30.80;;;;;;5110115;28;20031;-73
2022/08/19 11:14:16;;;;;;;0.00;0.00;;;26.30;30.20;;;;;;5115886;27;20055;-73
2022/08/19 11:16:42;;;;;;;0.30;0.30;;;26.30;30.30;;;;;;5109226;28;20023;-73
2022/08/19 11:19:12;;;;;;;0.00;0.00;;;26.40;29.70;;;;;;5114552;28;20035;-73
2022/08/19 11:21:41;;;;;;;0.00;0.00;;;26.60;29.80;;;;;;5113071;28;20027;-73
2022/08/19 11:24:10;;;;;;;0.00;0.00;;;26.70;29.60;;;;;;5109721;28;20153;-73
2022/08/19 11:26:39;;;;;;;0.00;0.00;;;26.70;29.00;;;;;;5109386;28;20503;-72
2022/08/19 11:29:11;;;;;;;0.00;0.00;;;26.70;29.20;;;;;;5106261;28;20024;-72
2022/08/19 11:31:38;;;;;;;0.00;0.00;;;26.60;28.80;;;;;;5110036;28;20357;-72
2022/08/19 11:34:07;;;;;;;0.00;0.00;;;26.60;28.80;;;;;;5100787;28;20077;-73
2022/08/19 11:36:37;;;;;;;0.00;0.00;;;26.40;29.00;;;;;;5103083;28;20041;-72
2022/08/19 11:39:05;;;;;;;0.00;0.00;;;26.40;29.00;;;;;;5114131;28;20371;-74
2022/08/19 11:41:32;;;;;;;0.00;0.00;;;26.40;29.40;;;;;;5110797;28;20047;-74
2022/08/19 11:43:58;;;;;;;0.00;0.00;;;26.30;29.80;;;;;;5106534;28;20490;-73
2022/08/19 11:46:29;;;;;;;0.00;0.00;;;26.40;29.70;;;;;;5107890;28;20042;-73
2022/08/19 11:48:56;;;;;;;0.00;0.00;;;26.50;29.80;;;;;;5111945;28;20040;-73
2022/08/19 11:51:27;;;;;;;0.00;0.00;;;26.60;28.90;;;;;;5108371;28;20027;-74
2022/08/19 11:53:58;;;;;;;0.00;0.00;;;26.50;28.60;;;;;;5110647;28;20497;-74
2022/08/19 11:56:25;;;;;;;0.00;0.00;;;26.40;28.50;;;;;;5109635;28;20048;-74
2022/08/19 11:58:56;;;;;;;0.00;0.00;;;26.30;28.40;;;;;;5112283;28;20028;-73
2022/08/19 12:01:26;;;;;;;0.00;0.00;;;26.40;28.70;;;;;;5106407;28;20034;-74
2022/08/19 12:03:54;;;;;;;0.00;0.00;;;26.30;28.80;;;;;;5110407;28;20394;-74
2022/08/19 12:06:28;;;;;;;0.47;0.47;;;26.30;28.60;;;;;;5104209;28;20030;-74
2022/08/19 12:08:56;;;;;;;0.00;0.00;;;26.30;28.60;;;;;;5114445;28;20032;-72
2022/08/19 12:11:23;;;;;;;0.00;0.00;;;26.30;28.50;;;;;;5111743;28;20414;-73
2022/08/19 12:13:49;;;;;;;0.00;0.00;;;26.30;28.50;;;;;;5107910;27;20463;-75
2022/08/19 12:16:19;;;;;;;0.03;0.03;;;26.30;28.80;;;;;;5108710;27;20035;-73
2022/08/19 12:18:48;;;;;;;0.00;0.00;;;26.30;28.80;;;;;;5108217;27;20023;-74
2022/08/19 12:21:21;;;;;;;0.00;0.00;;;26.30;29.10;;;;;;5111229;27;20031;-74
2022/08/19 12:23:48;;;;;;;0.00;0.00;;;26.20;29.70;;;;;;5112690;27;20032;-74
2022/08/19 12:26:14;;;;;;;0.00;0.00;;;26.20;29.60;;;;;;5110891;27;20034;-73
2022/08/19 12:28:41;;;;;;;0.00;0.00;;;26.30;29.50;;;;;;5107470;27;20217;-73
2022/08/19 12:31:07;;;;;;;0.00;0.00;;;26.30;28.90;;;;;;5108344;27;20551;-73
2022/08/19 12:33:34;;;;;;;0.00;0.00;;;26.20;28.60;;;;;;5103244;27;20483;-73
2022/08/19 12:36:06;;;;;;;0.00;0.00;;;26.10;29.10;;;;;;5115035;27;20480;-73
2022/08/19 12:38:34;;;;;;;0.00;0.00;;;26.10;29.40;;;;;;5109334;28;20031;-72
2022/08/19 12:41:00;;;;;;;0.00;0.00;;;26.10;29.80;;;;;;5112666;28;20020;-72
2022/08/19 12:43:27;;;;;;;0.00;0.00;;;26.00;30.40;;;;;;5110701;28;20094;-72
2022/08/19 12:45:53;;;;;;;0.00;0.00;;;26.00;30.30;;;;;;5109456;28;20028;-74
2022/08/19 12:48:19;;;;;;;0.00;0.00;;;26.00;30.20;;;;;;5111421;27;20092;-75
2022/08/19 12:50:46;;;;;;;0.00;0.00;;;26.00;30.40;;;;;;5094331;28;20023;-72
2022/08/19 12:53:13;;;;;;;0.00;0.00;;;26.00;30.00;;;;;;5114981;27;20069;-74
2022/08/19 12:55:39;;;;;;;0.00;0.00;;;26.00;30.30;;;;;;5114641;28;20028;-72
2022/08/19 12:58:05;;;;;;;0.00;0.00;;;25.80;30.00;;;;;;5112654;28;20434;-74
2022/08/19 13:00:32;;;;;;;0.00;0.00;;;25.90;30.20;;;;;;5114773;28;20486;-72
2022/08/19 13:02:59;;;;;;;0.00;0.00;;;25.80;30.30;;;;;;5111543;27;20093;-72
2022/08/19 13:05:33;;;;;;;0.22;0.22;;;25.90;30.30;;;;;;5109126;28;20463;-73
2022/08/19 13:07:59;;;;;;;0.00;0.00;;;26.00;30.50;;;;;;5113522;27;20059;-72
2022/08/19 13:10:30;;;;;;;0.35;0.35;;;25.80;30.80;;;;;;5115580;27;20019;-74
2022/08/19 13:12:59;;;;;;;0.00;0.00;;;25.70;30.50;;;;;;5117905;27;20027;-74
2022/08/19 13:15:28;;;;;;;0.00;0.00;;;25.80;30.60;;;;;;5110184;27;20015;-72
2022/08/19 13:17:55;;;;;;;0.00;0.00;;;25.70;30.70;;;;;;5118092;27;20068;-72
2022/08/19 13:20:22;;;;;;;0.00;0.00;;;25.70;30.60;;;;;;5116380;27;20042;-73